Time;durP1;ratioP1;P1;durP2;ratioP2;P2;SDS_P1;SDS_P2;PMS_P1;PMS_P2;Temp;Humidity;BMP_temperature;BMP_pressure;BME280_temperature;BME280_humidity;BME280_pressure;Samples;Min_cycle;Max_cycle;Signal;HPM_P1;HPM_P2
2022/05/23 00:01:27;;;;;;;4.60;2.80;;;17.70;99.90;;;;;;5052726;28;20764;-44
2022/05/23 00:03:54;;;;;;;3.83;3.10;;;17.70;99.90;;;;;;5052050;28;20949;-43
2022/05/23 00:06:22;;;;;;;6.60;3.57;;;17.60;99.90;;;;;;5051954;28;21018;-42
2022/05/23 00:11:19;;;;;;;5.33;3.00;;;17.60;99.90;;;;;;5070504;28;20460;-45
2022/05/23 00:13:46;;;;;;;4.20;2.80;;;17.70;99.90;;;;;;5071844;28;20437;-46
2022/05/23 00:16:18;;;;;;;4.47;3.10;;;17.60;99.90;;;;;;5072190;28;20471;-49
2022/05/23 00:18:45;;;;;;;6.20;3.33;;;17.40;99.90;;;;;;5086249;28;20452;-44
2022/05/23 00:21:12;;;;;;;6.13;3.27;;;17.10;99.90;;;;;;5092247;28;20489;-44
2022/05/23 00:23:41;;;;;;;7.13;3.80;;;17.20;99.90;;;;;;5092012;28;20473;-45
2022/05/23 00:26:10;;;;;;;4.10;3.70;;;17.10;99.90;;;;;;5091399;28;20947;-43
2022/05/23 00:28:37;;;;;;;4.60;2.97;;;17.20;99.90;;;;;;5091839;28;20577;-51
2022/05/23 00:31:04;;;;;;;4.50;2.50;;;17.30;99.90;;;;;;5091597;28;20505;-47
2022/05/23 00:36:16;;;;;;;6.03;2.90;;;17.50;99.90;;;;;;5091915;28;20423;-45
2022/05/23 00:38:44;;;;;;;5.67;3.23;;;17.40;99.90;;;;;;5091550;28;20464;-50
2022/05/23 00:44:10;;;;;;;5.13;3.37;;;17.60;99.90;;;;;;5091770;28;20437;-47
2022/05/23 00:46:50;;;;;;;3.67;3.10;;;17.70;99.90;;;;;;5091626;28;20512;-45
2022/05/23 00:49:20;;;;;;;3.10;2.10;;;17.70;99.90;;;;;;5091377;28;20858;-44
2022/05/23 00:51:47;;;;;;;4.10;3.40;;;17.60;99.90;;;;;;5091885;28;20948;-44
2022/05/23 00:54:16;;;;;;;6.03;2.80;;;17.50;99.90;;;;;;5091743;28;20555;-48
2022/05/23 00:56:45;;;;;;;4.37;2.70;;;17.50;99.90;;;;;;5091195;28;20439;-45
2022/05/23 00:59:16;;;;;;;5.67;2.90;;;17.60;99.90;;;;;;5091202;28;20802;-49
2022/05/23 01:01:43;;;;;;;4.60;3.30;;;17.60;99.90;;;;;;5091538;28;20871;-46
2022/05/23 01:04:10;;;;;;;5.53;2.97;;;17.60;99.90;;;;;;5091516;28;20497;-44
2022/05/23 01:06:38;;;;;;;3.60;2.53;;;17.60;99.90;;;;;;5091651;28;20914;-45
2022/05/23 01:09:05;;;;;;;6.60;3.10;;;17.60;99.90;;;;;;5090992;28;20570;-48
2022/05/23 01:11:34;;;;;;;4.47;2.80;;;17.60;99.90;;;;;;5091410;28;20865;-44
2022/05/23 01:14:01;;;;;;;3.20;2.70;;;17.60;99.90;;;;;;5091340;28;20505;-44
2022/05/23 01:16:28;;;;;;;5.13;2.90;;;17.70;99.90;;;;;;5091264;28;20445;-44
2022/05/23 01:18:55;;;;;;;6.80;3.30;;;17.60;99.90;;;;;;5091052;28;20529;-44
2022/05/23 01:21:34;;;;;;;4.00;2.47;;;17.60;99.90;;;;;;5091466;28;20435;-45
2022/05/23 01:24:08;;;;;;;6.53;3.00;;;17.60;99.90;;;;;;5091520;28;20484;-48
2022/05/23 01:26:37;;;;;;;4.87;3.20;;;17.60;99.90;;;;;;5090887;28;20535;-44
2022/05/23 01:29:11;;;;;;;3.63;2.20;;;17.70;99.90;;;;;;5090496;28;20511;-48
2022/05/23 01:31:38;;;;;;;3.70;2.40;;;17.40;99.90;;;;;;5091413;28;20439;-47
2022/05/23 01:34:05;;;;;;;3.20;2.47;;;17.40;99.90;;;;;;5091082;28;20962;-44
2022/05/23 01:36:32;;;;;;;3.27;2.60;;;17.20;99.90;;;;;;5091205;28;20497;-49
2022/05/23 01:38:59;;;;;;;4.47;2.40;;;17.20;99.90;;;;;;5090670;28;21015;-45
2022/05/23 01:41:27;;;;;;;3.37;2.30;;;17.20;99.90;;;;;;5090931;28;20508;-44
2022/05/23 01:43:55;;;;;;;3.80;2.70;;;17.10;99.90;;;;;;5091422;28;20471;-44
2022/05/23 01:46:22;;;;;;;5.93;2.87;;;17.10;99.90;;;;;;5090976;28;20478;-45
2022/05/23 01:48:49;;;;;;;4.70;2.30;;;17.20;99.90;;;;;;5090568;28;20480;-44
2022/05/23 01:51:16;;;;;;;5.53;3.13;;;17.10;99.90;;;;;;5091111;28;20504;-45
2022/05/23 01:53:43;;;;;;;6.80;2.80;;;16.90;99.90;;;;;;5090886;28;20497;-46
2022/05/23 01:56:10;;;;;;;5.03;2.40;;;16.70;99.90;;;;;;5090715;28;20463;-46
2022/05/23 02:01:25;;;;;;;4.40;2.87;;;16.70;99.90;;;;;;5091050;28;20418;-44
2022/05/23 02:03:52;;;;;;;3.53;2.30;;;16.80;99.90;;;;;;5090888;28;20675;-44
2022/05/23 02:06:19;;;;;;;3.77;2.43;;;16.90;99.90;;;;;;5090920;28;20467;-44
2022/05/23 02:08:46;;;;;;;3.07;2.40;;;17.10;99.90;;;;;;5090640;28;20566;-45
2022/05/23 02:11:14;;;;;;;3.97;2.40;;;17.20;99.90;;;;;;5090823;28;20483;-44
2022/05/23 02:13:43;;;;;;;5.97;3.30;;;17.30;99.90;;;;;;5090822;28;20481;-47
2022/05/23 02:16:11;;;;;;;4.90;2.60;;;17.30;99.90;;;;;;5091689;28;20535;-44
2022/05/23 02:18:40;;;;;;;3.90;2.50;;;17.30;99.90;;;;;;5094176;28;20516;-44
2022/05/23 02:21:07;;;;;;;3.30;2.27;;;17.30;99.90;;;;;;5094248;28;20448;-44
2022/05/23 02:23:34;;;;;;;5.20;2.70;;;17.30;99.90;;;;;;5094578;28;20474;-46
2022/05/23 02:26:01;;;;;;;4.00;2.20;;;17.10;99.90;;;;;;5093817;28;20443;-44
2022/05/23 02:28:28;;;;;;;5.37;3.00;;;17.20;99.90;;;;;;5094011;28;20489;-47
2022/05/23 02:30:55;;;;;;;4.27;2.70;;;17.30;99.90;;;;;;5094233;28;20529;-45
2022/05/23 02:33:21;;;;;;;5.40;3.37;;;17.20;99.90;;;;;;5094190;28;20947;-44
2022/05/23 02:35:50;;;;;;;4.90;2.47;;;17.30;99.90;;;;;;5094535;28;20476;-45
2022/05/23 02:38:17;;;;;;;3.97;2.03;;;17.30;99.90;;;;;;5094084;28;20555;-45
2022/05/23 02:40:44;;;;;;;4.90;2.90;;;17.10;99.90;;;;;;5093666;28;20518;-44
2022/05/23 02:43:11;;;;;;;3.73;2.50;;;17.00;99.90;;;;;;5093791;28;20471;-47
2022/05/23 02:45:41;;;;;;;4.67;2.70;;;17.00;99.90;;;;;;5093856;28;20471;-44
2022/05/23 02:48:09;;;;;;;4.53;3.07;;;17.20;99.90;;;;;;5094100;28;20520;-44
2022/05/23 02:50:36;;;;;;;4.80;2.43;;;17.10;99.90;;;;;;5093518;28;20538;-45
2022/05/23 02:53:04;;;;;;;4.80;3.03;;;17.10;99.90;;;;;;5093465;28;20878;-44
2022/05/23 02:55:31;;;;;;;5.30;3.07;;;17.10;99.90;;;;;;5093950;28;20443;-44
2022/05/23 02:57:58;;;;;;;3.13;2.27;;;17.20;99.90;;;;;;5093440;28;20979;-44
2022/05/23 03:00:25;;;;;;;5.63;2.60;;;17.30;99.90;;;;;;5093248;28;20471;-44
2022/05/23 03:03:03;;;;;;;7.40;3.60;;;16.90;99.90;;;;;;5093259;28;20467;-45
2022/05/23 03:05:31;;;;;;;4.50;2.90;;;16.70;99.90;;;;;;5093311;28;20955;-44
2022/05/23 03:07:58;;;;;;;6.40;3.20;;;16.70;99.90;;;;;;5093405;28;20491;-44
2022/05/23 03:10:26;;;;;;;6.23;3.47;;;16.80;99.90;;;;;;5092917;28;21056;-44
2022/05/23 03:12:54;;;;;;;5.23;3.20;;;16.90;99.90;;;;;;5093509;28;20440;-44
2022/05/23 03:15:21;;;;;;;5.90;2.90;;;17.00;99.90;;;;;;5093334;28;20517;-49
2022/05/23 03:17:48;;;;;;;4.30;2.50;;;16.90;99.90;;;;;;5093146;28;20495;-44
2022/05/23 03:20:16;;;;;;;2.93;2.20;;;16.90;99.90;;;;;;5093081;28;20599;-45
2022/05/23 03:28:13;;;;;;;3.40;2.50;;;16.70;99.90;;;;;;5093005;28;20811;-44
2022/05/23 03:30:40;;;;;;;3.00;2.27;;;16.80;99.90;;;;;;5092691;28;20524;-47
2022/05/23 03:33:08;;;;;;;4.00;2.30;;;16.80;99.90;;;;;;5092958;28;20478;-44
2022/05/23 03:35:35;;;;;;;9.00;3.60;;;17.00;99.90;;;;;;5093071;28;20534;-45
2022/05/23 03:38:03;;;;;;;12.13;3.07;;;17.10;99.90;;;;;;5092758;28;20487;-48
2022/05/23 03:40:32;;;;;;;5.50;2.90;;;17.10;99.90;;;;;;5092743;28;20435;-44
2022/05/23 03:43:00;;;;;;;4.40;2.67;;;17.10;99.90;;;;;;5092506;28;20821;-46
2022/05/23 03:45:28;;;;;;;5.40;2.90;;;17.00;99.90;;;;;;5092597;28;20530;-46
2022/05/23 03:47:56;;;;;;;5.80;2.73;;;16.90;99.90;;;;;;5092381;28;20939;-47
2022/05/23 03:50:26;;;;;;;6.03;2.20;;;17.00;99.90;;;;;;5092092;28;20566;-43
2022/05/23 03:52:53;;;;;;;3.50;2.63;;;17.10;99.90;;;;;;5092514;28;20512;-44
2022/05/23 03:55:20;;;;;;;8.33;3.30;;;17.10;99.90;;;;;;5092495;28;20486;-45
2022/05/23 03:57:48;;;;;;;3.83;2.50;;;17.10;99.90;;;;;;5092409;28;20625;-44
2022/05/23 04:00:17;;;;;;;6.40;3.00;;;17.10;99.90;;;;;;5092205;28;20467;-44
2022/05/23 04:02:45;;;;;;;4.47;2.63;;;17.20;99.90;;;;;;5092541;28;20449;-46
2022/05/23 04:05:14;;;;;;;2.90;2.50;;;17.20;99.90;;;;;;5092138;28;20505;-48
2022/05/23 04:07:42;;;;;;;5.80;3.10;;;17.30;99.90;;;;;;5092118;28;20495;-44
2022/05/23 04:10:11;;;;;;;5.40;2.93;;;17.20;99.90;;;;;;5092049;28;20532;-44
2022/05/23 04:12:38;;;;;;;3.83;2.50;;;17.30;99.90;;;;;;5091836;28;20955;-49
2022/05/23 04:15:08;;;;;;;7.00;3.00;;;17.30;99.90;;;;;;5092333;28;20486;-44
2022/05/23 04:17:36;;;;;;;5.20;3.37;;;17.30;99.90;;;;;;5092339;28;20495;-44
2022/05/23 04:20:03;;;;;;;5.70;3.60;;;17.40;99.90;;;;;;5091934;28;20442;-48
2022/05/23 04:22:30;;;;;;;3.80;2.87;;;17.40;99.90;;;;;;5091959;28;20478;-44
2022/05/23 04:24:57;;;;;;;4.67;2.97;;;17.20;99.90;;;;;;5091436;28;20522;-48
2022/05/23 04:27:24;;;;;;;4.77;2.80;;;17.30;99.90;;;;;;5091907;28;20505;-45
2022/05/23 04:29:50;;;;;;;5.17;2.93;;;17.30;99.90;;;;;;5091789;28;20563;-44
2022/05/23 04:35:15;;;;;;;6.30;2.97;;;17.20;99.90;;;;;;5092151;28;20537;-44
2022/05/23 04:37:44;;;;;;;5.40;2.80;;;17.20;99.90;;;;;;5091957;28;20495;-44
2022/05/23 04:40:13;;;;;;;4.03;3.33;;;17.40;99.90;;;;;;5090966;28;20874;-44
2022/05/23 04:42:40;;;;;;;4.17;2.33;;;17.30;99.90;;;;;;5091830;28;20481;-48
2022/05/23 04:45:09;;;;;;;6.93;3.17;;;17.20;99.90;;;;;;5091456;28;20530;-45
2022/05/23 04:50:22;;;;;;;3.40;2.83;;;17.10;99.90;;;;;;5091283;28;20609;-44
2022/05/23 04:52:50;;;;;;;6.17;2.97;;;17.30;99.90;;;;;;5091605;28;20493;-48
2022/05/23 04:55:18;;;;;;;4.43;2.43;;;17.30;99.90;;;;;;5091497;28;20819;-44
2022/05/23 04:57:45;;;;;;;2.97;2.50;;;17.40;99.90;;;;;;5091368;28;20491;-47
2022/05/23 05:00:17;;;;;;;4.23;2.53;;;17.40;99.90;;;;;;5091322;28;20467;-44
2022/05/23 05:02:46;;;;;;;7.87;3.60;;;17.50;99.90;;;;;;5091371;28;20481;-44
2022/05/23 05:05:14;;;;;;;5.07;3.77;;;17.50;99.90;;;;;;5091576;28;20467;-47
2022/05/23 05:07:40;;;;;;;6.70;3.70;;;17.50;99.90;;;;;;5091450;28;20525;-44
2022/05/23 05:10:09;;;;;;;7.00;3.73;;;17.50;99.90;;;;;;5090994;28;20511;-44
2022/05/23 05:12:36;;;;;;;6.90;3.80;;;17.40;99.90;;;;;;5091210;28;20812;-44
2022/05/23 05:15:04;;;;;;;5.83;4.10;;;17.40;99.90;;;;;;5091459;28;20444;-45
2022/05/23 05:17:31;;;;;;;9.00;4.20;;;17.40;99.90;;;;;;5091405;28;20491;-44
2022/05/23 05:19:59;;;;;;;10.93;3.87;;;17.40;99.90;;;;;;5091207;28;20924;-44
2022/05/23 05:22:26;;;;;;;5.23;3.13;;;17.40;99.90;;;;;;5091144;28;20467;-44
2022/05/23 05:24:53;;;;;;;4.20;2.50;;;17.30;99.90;;;;;;5090838;28;20498;-46
2022/05/23 05:27:20;;;;;;;5.87;3.70;;;17.30;99.90;;;;;;5091184;28;20493;-45
2022/05/23 05:29:47;;;;;;;4.63;2.87;;;17.30;99.90;;;;;;5091021;28;20562;-44
2022/05/23 05:32:19;;;;;;;6.67;3.70;;;17.10;99.90;;;;;;5091105;28;20482;-44
2022/05/23 05:34:51;;;;;;;4.43;2.70;;;17.20;99.90;;;;;;5091104;28;20488;-44
2022/05/23 05:37:28;;;;;;;3.80;2.90;;;17.30;99.90;;;;;;5090866;28;20974;-44
2022/05/23 05:39:58;;;;;;;4.17;3.33;;;17.40;99.90;;;;;;5091273;28;20431;-44
2022/05/23 05:42:30;;;;;;;4.33;3.63;;;17.60;99.90;;;;;;5091155;28;20846;-44
2022/05/23 05:45:02;;;;;;;4.67;2.80;;;17.60;99.90;;;;;;5091358;28;20462;-44
2022/05/23 05:47:31;;;;;;;6.87;3.63;;;17.70;99.90;;;;;;5090956;28;21060;-44
2022/05/23 05:50:02;;;;;;;4.80;3.37;;;17.70;99.90;;;;;;5091733;28;20514;-44
2022/05/23 05:52:33;;;;;;;5.87;3.07;;;17.80;99.90;;;;;;5095229;28;20485;-45
2022/05/23 05:55:02;;;;;;;4.33;3.73;;;18.00;99.90;;;;;;5094628;28;20475;-44
2022/05/23 05:57:29;;;;;;;14.63;4.00;;;18.10;99.90;;;;;;5094310;28;20481;-45
2022/05/23 05:59:56;;;;;;;10.87;5.03;;;18.10;99.90;;;;;;5094702;28;20439;-45
2022/05/23 06:02:23;;;;;;;11.67;4.27;;;17.90;99.90;;;;;;5094364;28;20435;-46
2022/05/23 06:04:50;;;;;;;6.00;5.03;;;17.80;99.90;;;;;;5094792;28;20463;-44
2022/05/23 06:12:54;;;;;;;6.00;3.70;;;18.10;99.90;;;;;;5094586;28;20426;-45
2022/05/23 06:15:21;;;;;;;6.07;5.10;;;18.40;99.90;;;;;;5094592;28;20888;-44
2022/05/23 06:17:50;;;;;;;8.40;3.77;;;18.60;99.90;;;;;;5094485;28;20459;-47
2022/05/23 06:20:17;;;;;;;10.90;3.43;;;18.70;99.90;;;;;;5094011;28;20773;-45
2022/05/23 06:22:44;;;;;;;10.27;3.80;;;18.90;99.90;;;;;;5094470;28;21020;-44
2022/05/23 06:25:13;;;;;;;10.43;4.43;;;18.90;99.90;;;;;;5093867;28;20469;-45
2022/05/23 06:27:41;;;;;;;8.80;5.03;;;18.70;99.90;;;;;;5094253;28;20884;-50
2022/05/23 06:30:10;;;;;;;7.23;4.43;;;18.40;99.90;;;;;;5093899;28;20468;-45
2022/05/23 06:32:37;;;;;;;11.80;3.97;;;18.30;99.90;;;;;;5094201;28;20440;-45
2022/05/23 06:35:07;;;;;;;8.90;4.00;;;18.40;99.90;;;;;;5093883;28;20471;-47
2022/05/23 06:37:34;;;;;;;12.47;4.63;;;18.40;99.90;;;;;;5093736;28;20499;-45
2022/05/23 06:40:01;;;;;;;8.37;4.77;;;18.50;99.90;;;;;;5093832;28;20471;-48
2022/05/23 06:42:31;;;;;;;10.93;4.10;;;18.50;99.90;;;;;;5093772;28;20478;-45
2022/05/23 06:44:58;;;;;;;21.40;8.10;;;18.60;99.90;;;;;;5093592;28;20439;-48
2022/05/23 06:47:25;;;;;;;14.63;5.50;;;18.70;99.90;;;;;;5093696;28;20889;-45
2022/05/23 06:49:52;;;;;;;7.23;5.10;;;18.70;99.90;;;;;;5093298;28;20444;-45
2022/05/23 06:52:19;;;;;;;10.57;4.73;;;18.60;99.90;;;;;;5093666;28;20526;-45
2022/05/23 06:54:46;;;;;;;16.93;6.50;;;18.50;99.90;;;;;;5094091;28;20431;-45
2022/05/23 06:57:13;;;;;;;8.73;5.60;;;18.60;99.90;;;;;;5093625;28;20471;-45
2022/05/23 06:59:41;;;;;;;10.47;5.50;;;18.70;99.90;;;;;;5093567;28;20522;-45
2022/05/23 07:02:09;;;;;;;7.40;5.30;;;18.60;99.90;;;;;;5092796;28;20475;-46
2022/05/23 07:12:52;;;;;;;7.30;4.53;;;18.50;99.90;;;;;;5067005;28;20448;-45
2022/05/23 07:15:21;;;;;;;6.73;4.80;;;18.60;99.90;;;;;;5093361;28;20923;-48
2022/05/23 07:17:48;;;;;;;11.80;4.90;;;18.60;99.90;;;;;;5093236;28;20486;-47
2022/05/23 07:20:15;;;;;;;7.90;4.40;;;18.60;99.90;;;;;;5093035;28;20893;-45
2022/05/23 07:22:42;;;;;;;7.10;4.80;;;18.60;99.90;;;;;;5093037;28;20474;-48
2022/05/23 07:25:10;;;;;;;7.20;5.30;;;18.80;99.90;;;;;;5092599;28;20436;-45
2022/05/23 07:27:37;;;;;;;6.33;4.27;;;18.90;99.90;;;;;;5092894;28;20470;-45
2022/05/23 07:30:05;;;;;;;6.93;5.00;;;18.90;99.90;;;;;;5092592;28;20503;-44
2022/05/23 07:32:33;;;;;;;6.87;4.53;;;18.90;99.90;;;;;;5093037;28;20439;-45
2022/05/23 07:35:00;;;;;;;6.53;4.43;;;18.90;99.90;;;;;;5092879;28;20467;-44
2022/05/23 07:37:28;;;;;;;5.73;4.30;;;19.00;99.90;;;;;;5092568;28;20464;-49
2022/05/23 07:39:56;;;;;;;7.00;4.00;;;19.20;99.90;;;;;;5092804;28;20435;-45
2022/05/23 07:42:23;;;;;;;9.40;4.73;;;19.40;99.90;;;;;;5092857;28;20439;-48
2022/05/23 07:44:50;;;;;;;9.93;4.73;;;19.60;99.90;;;;;;5092818;28;20576;-44
2022/05/23 07:47:17;;;;;;;6.70;4.20;;;19.80;99.90;;;;;;5092490;28;20439;-44
2022/05/23 07:49:47;;;;;;;8.00;5.10;;;19.90;99.90;;;;;;5092358;28;20526;-44
2022/05/23 07:52:14;;;;;;;4.67;4.27;;;19.80;99.90;;;;;;5092752;28;20475;-44
2022/05/23 08:02:55;;;;;;;9.33;4.97;;;19.90;99.90;;;;;;5092497;28;20934;-46
2022/05/23 08:05:23;;;;;;;8.67;4.10;;;19.70;99.90;;;;;;5092426;28;20527;-44
2022/05/23 08:07:50;;;;;;;13.03;4.63;;;19.80;99.90;;;;;;5092220;28;20552;-44
2022/05/23 08:10:17;;;;;;;9.23;4.70;;;19.90;99.90;;;;;;5091848;28;20546;-47
2022/05/23 08:12:48;;;;;;;5.73;4.10;;;19.70;99.90;;;;;;5091920;28;20467;-46
2022/05/23 08:15:15;;;;;;;13.50;5.10;;;19.80;99.90;;;;;;5091473;28;20463;-44
2022/05/23 08:17:42;;;;;;;6.20;4.30;;;19.70;99.90;;;;;;5092268;28;20482;-44
2022/05/23 08:20:10;;;;;;;7.03;4.00;;;19.70;99.90;;;;;;5092039;28;20467;-44
2022/05/23 08:22:39;;;;;;;7.90;3.53;;;19.70;99.90;;;;;;5092272;28;20436;-44
2022/05/23 08:25:07;;;;;;;6.80;3.60;;;19.80;99.90;;;;;;5091923;28;21026;-47
2022/05/23 08:27:34;;;;;;;6.13;3.50;;;19.90;99.90;;;;;;5092145;28;20464;-44
2022/05/23 08:30:02;;;;;;;7.07;4.00;;;20.00;99.90;;;;;;5091728;28;20522;-44
2022/05/23 08:32:29;;;;;;;5.30;3.40;;;19.90;99.90;;;;;;5091550;28;20471;-44
2022/05/23 08:34:56;;;;;;;5.70;3.93;;;19.90;99.90;;;;;;5091884;28;20443;-44
2022/05/23 08:37:23;;;;;;;6.93;4.30;;;20.10;99.90;;;;;;5091841;28;20516;-47
2022/05/23 08:39:51;;;;;;;9.77;4.40;;;20.20;99.90;;;;;;5091779;28;20444;-45
2022/05/23 08:42:29;;;;;;;6.10;4.20;;;20.20;99.90;;;;;;5091909;28;20861;-44
2022/05/23 08:45:07;;;;;;;8.73;4.57;;;20.30;99.90;;;;;;5091860;28;20443;-44
2022/05/23 08:47:39;;;;;;;9.57;4.83;;;20.50;99.90;;;;;;5091501;28;20481;-44
2022/05/23 08:50:13;;;;;;;9.90;4.70;;;20.60;99.90;;;;;;5091711;28;20436;-45
2022/05/23 08:52:46;;;;;;;8.13;4.50;;;20.80;99.90;;;;;;5091530;28;20938;-45
2022/05/23 08:55:20;;;;;;;5.13;3.60;;;21.00;99.90;;;;;;5091825;28;20523;-45
2022/05/23 08:57:56;;;;;;;7.73;5.27;;;21.10;99.90;;;;;;5091512;28;20463;-43
2022/05/23 09:00:27;;;;;;;8.23;3.50;;;21.20;99.90;;;;;;5091257;28;20846;-45
2022/05/23 09:02:57;;;;;;;5.20;3.80;;;21.20;99.90;;;;;;5091927;28;20467;-44
2022/05/23 09:05:32;;;;;;;5.90;3.50;;;21.10;99.90;;;;;;5091957;28;20518;-44
2022/05/23 09:08:02;;;;;;;4.20;3.13;;;21.20;99.90;;;;;;5091313;28;20465;-45
2022/05/23 09:10:36;;;;;;;7.33;4.30;;;21.30;99.90;;;;;;5091101;28;20542;-45
2022/05/23 09:13:05;;;;;;;6.10;4.67;;;21.30;99.90;;;;;;5091574;28;20437;-45
2022/05/23 09:15:33;;;;;;;9.07;4.50;;;21.50;99.90;;;;;;5091360;28;20509;-49
2022/05/23 09:18:05;;;;;;;5.90;3.40;;;21.60;99.90;;;;;;5091298;28;20464;-44
2022/05/23 09:20:40;;;;;;;6.43;3.70;;;21.70;99.90;;;;;;5091024;28;20996;-45
2022/05/23 09:23:11;;;;;;;8.63;4.20;;;21.90;99.90;;;;;;5091286;28;20435;-45
2022/05/23 09:25:40;;;;;;;7.83;3.80;;;22.00;99.90;;;;;;5093456;28;20437;-45
2022/05/23 09:28:23;;;;;;;6.67;4.13;;;22.10;99.90;;;;;;5095419;28;20460;-44
2022/05/23 09:30:58;;;;;;;7.77;4.27;;;22.10;99.90;;;;;;5095001;28;21001;-46
2022/05/23 09:33:28;;;;;;;6.57;4.10;;;22.30;99.90;;;;;;5095626;28;20434;-45
2022/05/23 09:36:08;;;;;;;5.80;4.50;;;22.30;99.90;;;;;;5095369;28;20443;-45
2022/05/23 09:38:47;;;;;;;5.93;3.70;;;22.40;99.90;;;;;;5095112;28;20910;-46
2022/05/23 09:47:44;;;;;;;6.33;4.00;;;22.40;99.90;;;;;;5095273;28;20435;-45
2022/05/23 09:49:48;;;;;;;4.97;4.47;;;22.30;99.90;;;;;;5094655;28;20438;-45
2022/05/23 09:52:20;;;;;;;8.30;4.70;;;22.30;99.90;;;;;;5095198;28;20510;-45
2022/05/23 09:54:52;;;;;;;6.80;3.47;;;22.10;99.90;;;;;;5095069;28;20443;-44
2022/05/23 09:57:25;;;;;;;5.10;3.93;;;22.10;99.90;;;;;;5095048;28;20474;-45
2022/05/23 09:59:59;;;;;;;4.63;3.63;;;22.30;99.90;;;;;;5094400;28;20443;-45
2022/05/23 10:02:35;;;;;;;5.90;4.87;;;22.40;99.90;;;;;;5095135;28;20439;-44
2022/05/23 10:05:03;;;;;;;9.00;4.03;;;22.40;99.90;;;;;;5094872;28;20932;-49
2022/05/23 10:07:34;;;;;;;6.13;3.53;;;22.40;99.90;;;;;;5094731;28;20923;-46
2022/05/23 10:10:03;;;;;;;6.60;4.77;;;22.40;99.90;;;;;;5094225;28;20947;-43
2022/05/23 10:12:33;;;;;;;6.27;3.90;;;22.40;99.90;;;;;;5090109;28;20524;-42
2022/05/23 10:15:18;;;;;;;6.03;3.90;;;22.50;99.90;;;;;;5074605;28;20514;-42
2022/05/23 10:17:46;;;;;;;4.53;4.00;;;22.70;99.90;;;;;;5074411;28;20543;-46
2022/05/23 10:20:24;;;;;;;10.00;4.37;;;22.80;99.90;;;;;;5074054;28;20459;-46
2022/05/23 10:22:57;;;;;;;7.90;3.87;;;22.90;99.90;;;;;;5074301;28;20439;-45
2022/05/23 10:25:26;;;;;;;8.20;3.73;;;23.00;99.90;;;;;;5073928;28;20498;-42
2022/05/23 10:27:59;;;;;;;6.67;3.53;;;23.00;99.90;;;;;;5074022;28;21009;-51
2022/05/23 10:30:31;;;;;;;5.33;3.53;;;23.10;99.90;;;;;;5073978;28;20476;-44
2022/05/23 10:33:03;;;;;;;5.93;4.03;;;23.10;99.90;;;;;;5073796;28;20479;-43
2022/05/23 10:35:35;;;;;;;6.60;4.03;;;23.20;99.90;;;;;;5073831;28;20876;-43
2022/05/23 10:43:31;;;;;;;10.03;4.80;;;23.40;99.90;;;;;;5073496;28;20427;-42
2022/05/23 10:46:00;;;;;;;7.97;4.47;;;23.40;99.90;;;;;;5073500;28;20856;-42
2022/05/23 10:48:39;;;;;;;4.90;4.40;;;23.30;99.90;;;;;;5073597;28;20463;-42
2022/05/23 10:51:16;;;;;;;9.33;5.63;;;23.40;99.90;;;;;;5073401;28;20471;-42
2022/05/23 10:53:58;;;;;;;7.77;4.17;;;23.50;99.90;;;;;;5073647;28;21003;-43
2022/05/23 10:56:32;;;;;;;7.30;5.17;;;23.60;99.90;;;;;;5073454;28;20444;-42
2022/05/23 10:59:08;;;;;;;8.87;4.47;;;23.60;99.90;;;;;;5073369;28;20492;-42
2022/05/23 11:01:55;;;;;;;7.23;3.67;;;23.60;99.90;;;;;;5073707;28;20494;-42
2022/05/23 11:04:34;;;;;;;6.50;4.60;;;23.70;99.90;;;;;;5073819;28;20436;-43
2022/05/23 11:07:11;;;;;;;9.93;5.20;;;23.70;99.90;;;;;;5073605;28;20440;-42
2022/05/23 11:09:48;;;;;;;8.37;5.30;;;23.70;99.90;;;;;;5073205;28;20471;-44
2022/05/23 11:12:24;;;;;;;5.57;4.53;;;23.70;99.90;;;;;;5073333;28;20472;-42
2022/05/23 11:15:07;;;;;;;9.00;4.17;;;23.80;99.90;;;;;;5073263;28;20440;-43
2022/05/23 11:17:45;;;;;;;5.47;4.40;;;23.80;99.90;;;;;;5073510;28;20464;-42
2022/05/23 11:20:20;;;;;;;9.50;4.70;;;23.80;99.90;;;;;;5073045;28;20479;-42
2022/05/23 11:22:51;;;;;;;7.97;4.43;;;23.90;99.90;;;;;;5073073;28;20436;-43
2022/05/23 11:25:29;;;;;;;6.67;4.80;;;24.00;99.90;;;;;;5072560;28;20476;-42
2022/05/23 11:33:42;;;;;;;8.27;4.27;;;24.40;99.90;;;;;;5072891;28;20932;-46
2022/05/23 11:36:14;;;;;;;7.70;5.40;;;24.50;99.90;;;;;;5073225;28;20868;-44
2022/05/23 11:38:45;;;;;;;6.53;5.30;;;24.50;99.90;;;;;;5072654;28;20469;-45
2022/05/23 11:41:41;;;;;;;7.80;4.57;;;24.50;99.90;;;;;;5072573;28;20441;-45
2022/05/23 11:44:32;;;;;;;6.63;4.30;;;24.50;99.90;;;;;;5072674;28;20896;-45
2022/05/23 11:47:21;;;;;;;6.47;4.90;;;24.50;99.90;;;;;;5072248;28;20437;-44
2022/05/23 11:49:49;;;;;;;8.10;4.60;;;24.60;99.90;;;;;;5072078;28;21024;-44
2022/05/23 11:52:23;;;;;;;9.60;4.60;;;24.70;99.90;;;;;;5072351;28;20484;-45
2022/05/23 11:54:50;;;;;;;8.93;5.37;;;24.70;99.90;;;;;;5072584;28;20472;-45
2022/05/23 11:57:35;;;;;;;9.47;4.60;;;24.70;99.90;;;;;;5072143;28;20452;-45
2022/05/23 12:00:31;;;;;;;8.47;5.03;;;24.80;99.90;;;;;;5072213;28;20444;-46
2022/05/23 12:03:16;;;;;;;9.60;5.17;;;24.90;99.90;;;;;;5072492;28;20436;-45
2022/05/23 12:05:44;;;;;;;12.17;5.57;;;24.80;99.90;;;;;;5071992;28;20436;-48
2022/05/23 12:08:33;;;;;;;8.07;5.13;;;24.80;99.90;;;;;;5072173;28;20468;-44
2022/05/23 12:11:03;;;;;;;6.47;4.40;;;24.80;99.90;;;;;;5073037;28;20463;-44
2022/05/23 12:13:52;;;;;;;15.20;6.50;;;24.90;99.90;;;;;;5072000;28;21065;-45
2022/05/23 12:16:44;;;;;;;6.27;5.13;;;25.00;99.90;;;;;;5072175;28;20812;-45
2022/05/23 12:19:36;;;;;;;7.70;4.87;;;25.00;99.90;;;;;;5071844;28;20460;-45
2022/05/23 12:22:26;;;;;;;13.10;6.00;;;25.00;99.90;;;;;;5071972;28;20859;-45
2022/05/23 12:25:22;;;;;;;6.60;5.20;;;25.10;99.90;;;;;;5071389;28;20519;-45
2022/05/23 12:28:25;;;;;;;13.90;5.60;;;25.20;99.90;;;;;;5066717;28;20499;-45
2022/05/23 12:31:12;;;;;;;7.00;4.73;;;25.20;99.90;;;;;;5071575;28;20958;-44
2022/05/23 12:33:48;;;;;;;15.10;6.20;;;25.20;99.90;;;;;;5071896;28;20475;-45
2022/05/23 12:36:25;;;;;;;8.17;4.90;;;25.20;99.90;;;;;;5072334;28;20487;-44
2022/05/23 12:39:26;;;;;;;11.27;4.10;;;25.20;99.90;;;;;;5071675;28;20488;-45
2022/05/23 12:42:05;;;;;;;14.73;4.90;;;25.20;99.90;;;;;;5071541;28;20948;-44
2022/05/23 12:45:13;;;;;;;13.00;6.40;;;25.30;99.90;;;;;;5071917;28;20489;-44
2022/05/23 12:48:09;;;;;;;8.90;6.00;;;25.20;99.90;;;;;;5040433;28;20464;-44
2022/05/23 12:50:54;;;;;;;7.73;4.80;;;25.20;99.90;;;;;;5071304;28;20479;-45
2022/05/23 12:53:51;;;;;;;7.23;5.57;;;25.30;99.90;;;;;;5071553;28;20918;-44
2022/05/23 12:56:44;;;;;;;8.33;5.50;;;25.30;99.90;;;;;;5071613;28;20452;-45
2022/05/23 12:59:41;;;;;;;11.67;5.33;;;25.40;99.90;;;;;;5071111;28;20496;-44
2022/05/23 13:02:12;;;;;;;8.47;4.50;;;25.40;99.90;;;;;;5071354;28;20502;-44
2022/05/23 13:04:47;;;;;;;5.17;4.63;;;25.30;99.90;;;;;;5071583;28;20472;-45
2022/05/23 13:07:21;;;;;;;9.43;6.07;;;25.30;99.90;;;;;;5071520;28;20513;-44
2022/05/23 13:09:55;;;;;;;8.07;5.00;;;25.40;99.90;;;;;;5070993;28;20897;-45
2022/05/23 13:12:26;;;;;;;9.53;6.10;;;25.40;99.90;;;;;;5071257;28;20472;-44
2022/05/23 13:14:56;;;;;;;9.77;6.23;;;25.40;99.90;;;;;;5071305;28;20428;-45
2022/05/23 13:17:38;;;;;;;11.03;5.13;;;25.50;99.90;;;;;;5071373;28;20492;-44
2022/05/23 13:23:02;;;;;;;9.13;5.07;;;25.70;99.90;;;;;;5071540;28;20419;-45
2022/05/23 13:25:32;;;;;;;10.27;5.80;;;25.80;99.90;;;;;;5070969;28;20440;-45
2022/05/23 13:28:00;;;;;;;6.90;4.80;;;25.90;99.90;;;;;;5071259;28;20531;-45
2022/05/23 13:30:30;;;;;;;9.90;5.30;;;25.90;99.90;;;;;;5070897;28;20467;-45
2022/05/23 13:33:08;;;;;;;6.10;4.87;;;25.90;99.90;;;;;;5070852;28;20481;-45
2022/05/23 13:35:36;;;;;;;9.37;5.20;;;25.90;99.90;;;;;;5071088;28;20994;-45
2022/05/23 13:38:22;;;;;;;9.10;5.50;;;25.80;99.90;;;;;;5071087;28;20464;-45
2022/05/23 13:40:53;;;;;;;6.47;5.30;;;25.90;99.90;;;;;;5070962;28;20440;-45
2022/05/23 13:43:24;;;;;;;6.97;4.97;;;26.00;99.90;;;;;;5071031;28;20471;-45
2022/05/23 13:46:02;;;;;;;6.57;4.53;;;26.10;99.90;;;;;;5071582;28;20793;-44
2022/05/23 13:48:36;;;;;;;13.77;6.03;;;26.20;99.90;;;;;;5071100;28;20467;-45
2022/05/23 13:51:07;;;;;;;17.37;6.13;;;26.20;99.90;;;;;;5070932;28;20451;-45
2022/05/23 13:53:39;;;;;;;9.60;5.83;;;26.20;99.90;;;;;;5070897;28;20507;-45
2022/05/23 13:56:07;;;;;;;8.07;5.87;;;26.20;99.90;;;;;;5070705;28;20452;-44
2022/05/23 13:58:40;;;;;;;8.43;4.67;;;26.20;99.90;;;;;;5070753;28;20473;-45
2022/05/23 14:01:16;;;;;;;10.80;5.20;;;26.10;99.90;;;;;;5070571;28;20940;-44
2022/05/23 14:03:45;;;;;;;6.20;4.93;;;26.10;99.90;;;;;;5070912;28;20936;-44
2022/05/23 14:06:15;;;;;;;8.37;5.40;;;26.10;99.90;;;;;;5070898;28;20475;-45
2022/05/23 14:08:52;;;;;;;25.23;6.27;;;26.20;99.90;;;;;;5070574;28;20464;-44
2022/05/23 14:11:26;;;;;;;10.20;5.33;;;26.10;99.90;;;;;;5071989;28;20558;-44